Time;durP1;ratioP1;P1;durP2;ratioP2;P2;SDS_P1;SDS_P2;PMS_P1;PMS_P2;Temp;Humidity;BMP_temperature;BMP_pressure;BME280_temperature;BME280_humidity;BME280_pressure;Samples;Min_cycle;Max_cycle;Signal;HPM_P1;HPM_P2
2021/07/24 00:02:38;;;;;;;5.93;4.15;;;;;;;19.60;88.79;100030.66;6245928;28;20132;-77
2021/07/24 00:05:39;;;;;;;7.87;4.57;;;;;;;19.63;88.15;100025.06;6246906;28;20126;-77
2021/07/24 00:08:46;;;;;;;10.10;4.45;;;;;;;19.64;89.51;100024.09;6246914;28;20041;-77
2021/07/24 00:11:46;;;;;;;6.90;4.60;;;;;;;19.65;90.30;100027.56;6245554;28;20139;-77
2021/07/24 00:14:47;;;;;;;10.30;4.83;;;;;;;19.66;89.56;100031.84;6229128;28;20092;-77
2021/07/24 00:17:48;;;;;;;11.57;4.77;;;;;;;19.63;90.64;100026.88;6245443;28;20045;-77
2021/07/24 00:20:49;;;;;;;6.83;4.07;;;;;;;19.62;90.29;100023.41;6246435;28;20397;-77
2021/07/24 00:23:50;;;;;;;6.20;3.63;;;;;;;19.64;90.18;100028.53;6246528;28;20103;-77
2021/07/24 00:26:50;;;;;;;9.60;4.07;;;;;;;19.64;90.84;100029.38;6244975;28;20038;-77
2021/07/24 00:29:54;;;;;;;5.13;4.07;;;;;;;19.56;90.58;100023.16;6245109;28;20368;-77
2021/07/24 00:32:54;;;;;;;5.70;4.10;;;;;;;19.58;88.48;100034.44;6245175;28;20049;-77
2021/07/24 00:35:55;;;;;;;8.90;4.30;;;;;;;19.48;90.75;100030.06;6245191;28;20041;-77
2021/07/24 00:38:56;;;;;;;7.13;4.07;;;;;;;19.43;89.38;100024.38;6244977;28;20069;-77
2021/07/24 00:42:17;;;;;;;5.87;4.10;;;;;;;19.43;89.46;100024.38;6245014;28;20285;-77
2021/07/24 00:45:20;;;;;;;7.65;4.57;;;;;;;19.44;90.03;100018.13;6246126;28;20083;-77
2021/07/24 00:48:22;;;;;;;6.68;4.60;;;;;;;19.44;90.07;100019.94;6246002;28;20091;-77
2021/07/24 00:51:29;;;;;;;6.63;4.30;;;;;;;19.41;89.81;100015.75;6244387;28;20057;-77
2021/07/24 00:54:30;;;;;;;7.45;4.25;;;;;;;19.38;92.01;100010.78;6244793;28;20047;-77
2021/07/24 00:57:31;;;;;;;8.45;4.60;;;;;;;19.36;89.83;100015.41;6228431;28;20472;-77
2021/07/24 01:00:31;;;;;;;8.43;4.97;;;;;;;19.25;89.88;100013.81;6244523;28;20056;-77
2021/07/24 01:03:32;;;;;;;8.50;4.70;;;;;;;19.26;90.44;100014.63;6228220;28;20151;-77
2021/07/24 01:06:33;;;;;;;6.23;4.57;;;;;;;19.26;91.45;100014.63;6244466;28;20505;-77
2021/07/24 01:09:34;;;;;;;6.80;4.53;;;;;;;19.24;92.26;100014.78;6244525;28;20050;-77
2021/07/24 01:12:36;;;;;;;8.27;5.00;;;;;;;19.21;90.97;100012.44;6244493;28;20038;-77
2021/07/24 01:15:36;;;;;;;;;;;;;;;19.21;91.69;100011.59;6245113;28;20469;-77
2021/07/24 01:18:37;;;;;;;6.38;4.13;;;;;;;19.17;92.08;100005.81;6244367;28;19927;-77
2021/07/24 01:21:38;;;;;;;9.33;4.87;;;;;;;19.14;91.81;100011.38;6244512;28;20042;-77
2021/07/24 01:24:38;;;;;;;8.03;4.53;;;;;;;19.10;93.95;100005.53;6228168;28;20497;-77
2021/07/24 01:27:43;;;;;;;8.23;4.72;;;;;;;19.03;94.34;100007.13;6245473;28;20141;-77
2021/07/24 01:30:44;;;;;;;5.95;4.32;;;;;;;18.99;92.88;100004.94;6228281;28;20041;-77
2021/07/24 01:33:45;;;;;;;6.80;4.60;;;;;;;18.89;94.48;99995.25;6245520;28;20038;-77
2021/07/24 01:36:46;;;;;;;7.73;5.07;;;;;;;18.92;94.58;100002.91;6244335;28;20046;-77
2021/07/24 01:39:46;;;;;;;5.33;4.07;;;;;;;18.90;93.93;99999.56;6247150;28;20401;-77
2021/07/24 01:42:47;;;;;;;5.73;4.70;;;;;;;18.96;95.87;99989.38;6249117;28;20120;-77
2021/07/24 01:45:48;;;;;;;12.60;5.13;;;;;;;18.97;95.82;99998.97;6232370;28;20112;-77
2021/07/24 01:55:25;;;;;;;9.38;6.00;;;;;;;19.00;95.72;99988.91;6250283;28;20499;-77
2021/07/24 01:58:30;;;;;;;7.57;5.78;;;;;;;18.99;96.27;99995.19;6249787;28;20058;-77
2021/07/24 02:01:32;;;;;;;9.38;5.82;;;;;;;19.01;96.05;99997.69;6249667;28;20049;-77
2021/07/24 02:04:36;;;;;;;7.63;5.53;;;;;;;19.01;96.32;99995.06;6248490;28;20066;-77
2021/07/24 02:07:44;;;;;;;7.43;4.63;;;;;;;18.97;95.69;99991.88;6249489;28;20045;-77
2021/07/24 02:10:45;;;;;;;6.90;4.85;;;;;;;18.98;95.54;100000.63;6249386;28;20129;-77
2021/07/24 02:13:47;;;;;;;6.23;4.47;;;;;;;18.99;95.37;99999.66;6249440;28;20045;-77
2021/07/24 02:16:48;;;;;;;8.43;4.78;;;;;;;19.01;95.32;99995.06;6248062;28;20073;-77
2021/07/24 02:19:49;;;;;;;6.60;4.40;;;;;;;19.02;95.19;99994.88;6248195;28;20038;-77
2021/07/24 02:22:50;;;;;;;7.97;4.57;;;;;;;19.03;95.97;99985.16;6249284;28;20106;-78
2021/07/24 02:25:50;;;;;;;11.23;6.10;;;;;;;18.95;97.13;99998.28;6249043;28;20444;-77
2021/07/24 02:28:51;;;;;;;5.93;4.68;;;;;;;19.00;97.79;99998.66;6231463;28;20045;-77
2021/07/24 02:31:55;;;;;;;7.33;4.43;;;;;;;19.05;97.14;99999.06;6231378;28;20119;-77
2021/07/24 02:34:56;;;;;;;6.60;4.25;;;;;;;19.07;98.03;99995.28;6247805;28;20037;-77
2021/07/24 02:37:57;;;;;;;6.77;4.67;;;;;;;19.06;96.15;99993.59;6248828;28;20508;-77
2021/07/24 02:40:58;;;;;;;6.68;4.85;;;;;;;19.05;94.90;99996.41;6247732;28;20033;-77
2021/07/24 02:43:58;;;;;;;11.00;4.90;;;;;;;19.06;93.95;100001.53;6248680;28;20041;-77
2021/07/24 02:46:59;;;;;;;6.33;4.47;;;;;;;19.05;94.54;99997.25;6248889;28;20041;-77
2021/07/24 02:50:00;;;;;;;5.80;4.35;;;;;;;19.03;95.58;99996.56;6248400;28;20048;-77
2021/07/24 02:53:00;;;;;;;7.07;4.15;;;;;;;19.05;96.52;99996.41;6247409;28;20037;-77
2021/07/24 02:56:01;;;;;;;6.55;4.53;;;;;;;19.05;94.71;99994.59;6248595;28;20037;-77
2021/07/24 02:59:02;;;;;;;16.85;5.45;;;;;;;19.03;95.21;99995.75;6248433;28;20075;-77
2021/07/24 03:02:03;;;;;;;12.10;4.67;;;;;;;19.03;95.37;100001.03;6230776;28;20045;-77
2021/07/24 03:05:04;;;;;;;11.43;4.63;;;;;;;19.03;95.15;99993.91;6247083;28;20480;-77
2021/07/24 03:08:05;;;;;;;11.15;4.97;;;;;;;19.07;93.60;99999.75;6246997;28;20787;-77
2021/07/24 03:11:05;;;;;;;8.43;5.07;;;;;;;19.10;93.77;99996.78;6246852;28;20041;-77
2021/07/24 03:14:06;;;;;;;6.70;4.57;;;;;;;19.12;95.06;100003.59;6246907;28;20046;-77
2021/07/24 03:17:07;;;;;;;11.43;4.77;;;;;;;19.13;95.26;99997.31;6248045;28;20128;-77
2021/07/24 03:20:08;;;;;;;7.27;4.33;;;;;;;19.11;95.75;100009.88;6246787;28;20038;-77
2021/07/24 03:23:09;;;;;;;7.63;4.72;;;;;;;19.13;97.61;100005.25;6247883;28;20038;-77
2021/07/24 03:26:10;;;;;;;13.43;4.50;;;;;;;19.11;95.43;100003.75;6247684;28;20412;-77
2021/07/24 03:29:11;;;;;;;8.15;4.68;;;;;;;19.11;97.08;100003.75;6230326;28;20549;-77
2021/07/24 03:32:11;;;;;;;6.73;4.77;;;;;;;19.11;95.41;100001.94;6247609;28;20045;-77
2021/07/24 03:35:13;;;;;;;13.87;5.47;;;;;;;19.16;94.96;99998.00;6246503;28;20069;-77
2021/07/24 03:38:14;;;;;;;9.90;5.40;;;;;;;19.16;93.10;100001.47;6246299;28;20046;-77
2021/07/24 03:41:15;;;;;;;9.48;5.28;;;;;;;19.16;94.86;100011.22;6246180;28;20068;-77
2021/07/24 03:44:15;;;;;;;10.87;5.23;;;;;;;19.16;92.15;100008.59;6247561;28;20034;-77
2021/07/24 03:47:16;;;;;;;10.27;5.53;;;;;;;19.21;93.39;100011.59;6247126;28;20045;-77
2021/07/24 03:50:17;;;;;;;7.57;5.03;;;;;;;19.26;92.46;100004.88;6229605;28;20042;-77
2021/07/24 03:53:17;;;;;;;11.07;5.57;;;;;;;19.31;90.26;100002.63;6247025;28;20049;-77
2021/07/24 03:56:20;;;;;;;8.17;5.53;;;;;;;19.36;89.16;100007.47;6246165;28;20094;-77
2021/07/24 03:59:21;;;;;;;12.02;5.72;;;;;;;19.39;89.89;100007.13;6246910;28;20386;-77
2021/07/24 04:02:23;;;;;;;7.37;4.93;;;;;;;19.44;88.72;100012.00;6245204;28;20042;-77
2021/07/24 04:05:24;;;;;;;10.80;5.63;;;;;;;19.45;88.42;100003.06;6245679;28;20049;-77
2021/07/24 04:08:25;;;;;;;9.07;5.90;;;;;;;19.54;87.94;100004.81;6245542;28;20045;-77
2021/07/24 04:11:27;;;;;;;12.45;5.80;;;;;;;19.61;88.03;100007.66;6246723;28;20049;-77
2021/07/24 04:14:28;;;;;;;;;;;;;;;19.66;92.73;100011.53;6247379;28;20030;-77
2021/07/24 04:17:29;;;;;;;11.27;5.00;;;;;;;19.69;91.39;100015.69;6245828;28;19925;-77
2021/07/24 04:20:30;;;;;;;11.83;5.20;;;;;;;19.74;91.84;100018.72;6245311;28;20099;-77
2021/07/24 04:23:31;;;;;;;9.40;5.63;;;;;;;19.71;88.04;100017.22;6246448;28;20484;-77
2021/07/24 04:26:32;;;;;;;9.70;5.70;;;;;;;19.70;91.20;100020.81;6246358;28;20103;-76
2021/07/24 04:29:33;;;;;;;12.55;5.82;;;;;;;19.68;87.70;100014.84;6246534;28;20049;-77
2021/07/24 04:32:34;;;;;;;8.57;4.87;;;;;;;19.69;86.60;100018.31;6245074;28;20050;-77
2021/07/24 04:35:34;;;;;;;11.13;5.57;;;;;;;19.69;87.45;100010.38;6246333;28;20480;-77
2021/07/24 04:38:35;;;;;;;8.43;5.10;;;;;;;19.71;87.15;100014.56;6246224;28;20053;-77
2021/07/24 04:41:36;;;;;;;9.97;5.33;;;;;;;19.73;88.17;100015.25;6228661;28;20468;-77
2021/07/24 04:44:38;;;;;;;13.23;5.70;;;;;;;19.77;88.28;100005.19;6228570;28;20044;-77
2021/07/24 04:47:39;;;;;;;10.13;5.15;;;;;;;19.83;88.85;100015.16;6245878;28;20045;-77
2021/07/24 04:50:47;;;;;;;11.67;5.87;;;;;;;19.98;88.41;100014.59;6245959;28;20048;-77
2021/07/24 04:53:48;;;;;;;8.43;5.47;;;;;;;20.03;88.44;100017.59;6244727;28;20060;-78
2021/07/24 04:56:49;;;;;;;10.43;5.80;;;;;;;20.11;91.80;100023.75;6228426;28;20057;-77
2021/07/24 04:59:51;;;;;;;10.50;5.80;;;;;;;20.15;87.69;100012.88;6244446;28;20058;-77
2021/07/24 05:02:52;;;;;;;13.25;5.90;;;;;;;20.24;89.60;100014.56;6244530;28;20275;-77
2021/07/24 05:05:53;;;;;;;13.23;6.57;;;;;;;20.28;88.28;100008.81;6245743;28;20111;-77
2021/07/24 05:08:54;;;;;;;12.73;6.30;;;;;;;20.42;85.31;100003.91;6228335;28;20049;-77
2021/07/24 05:11:55;;;;;;;11.47;6.50;;;;;;;20.47;85.69;100007.75;6244625;28;20037;-77
2021/07/24 05:14:55;;;;;;;9.17;6.40;;;;;;;20.51;86.02;100011.75;6248238;28;20037;-77
2021/07/24 05:17:56;;;;;;;10.60;6.73;;;;;;;20.58;84.87;100013.75;6249820;28;20038;-77
2021/07/24 05:20:57;;;;;;;14.23;7.23;;;;;;;20.68;84.02;100012.66;6250754;28;20495;-77
2021/07/24 05:23:58;;;;;;;16.03;6.50;;;;;;;20.77;84.55;100012.69;6249475;28;20037;-77
2021/07/24 05:26:59;;;;;;;14.40;6.60;;;;;;;20.81;82.17;100012.19;6250409;28;20046;-77
2021/07/24 05:30:00;;;;;;;11.85;7.07;;;;;;;20.78;80.20;100011.72;6250525;28;20072;-77
2021/07/24 05:33:01;;;;;;;11.30;7.37;;;;;;;20.87;78.68;100008.09;6249410;28;20455;-77
2021/07/24 05:36:01;;;;;;;11.43;7.13;;;;;;;20.91;81.33;100015.56;6250440;28;20046;-77
2021/07/24 05:39:02;;;;;;;11.23;6.70;;;;;;;20.96;83.57;100016.88;6250291;28;20507;-77
2021/07/24 05:42:03;;;;;;;10.33;7.30;;;;;;;21.01;77.76;100023.38;6250319;28;20076;-77
2021/07/24 05:45:05;;;;;;;12.80;6.80;;;;;;;21.06;79.39;100018.41;6232598;28;20401;-77
2021/07/24 05:48:06;;;;;;;;;;;;;;;21.14;79.85;100013.09;6232806;28;20299;-77
2021/07/24 05:51:07;;;;;;;9.20;6.45;;;;;;;21.19;80.19;100020.59;6248973;28;20283;-77
2021/07/24 05:54:10;;;;;;;11.57;6.75;;;;;;;21.22;80.86;100011.47;6232480;28;20396;-77
2021/07/24 05:57:11;;;;;;;13.32;5.95;;;;;;;21.28;79.38;100016.97;6249834;28;20045;-77
2021/07/24 06:00:12;;;;;;;10.30;6.90;;;;;;;21.33;83.50;100014.66;6248398;28;20596;-77
2021/07/24 06:03:14;;;;;;;12.65;6.18;;;;;;;21.50;79.40;100018.19;6248581;28;20092;-77
2021/07/24 06:06:15;;;;;;;12.02;5.43;;;;;;;21.60;75.96;100018.03;6248295;28;20124;-77
2021/07/24 06:09:15;;;;;;;9.30;5.40;;;;;;;21.68;76.25;100022.47;6249680;28;20041;-77
2021/07/24 06:12:16;;;;;;;12.13;5.23;;;;;;;21.71;79.57;100027.47;6248317;28;20041;-77
2021/07/24 06:15:17;;;;;;;9.77;5.67;;;;;;;21.80;74.21;100023.78;6248270;28;20084;-77
2021/07/24 06:18:18;;;;;;;10.90;5.50;;;;;;;21.88;75.74;100028.28;6248314;28;20499;-77
2021/07/24 06:21:18;;;;;;;9.10;5.83;;;;;;;21.90;77.73;100027.13;6249239;28;20113;-77
2021/07/24 06:24:19;;;;;;;6.43;5.07;;;;;;;22.01;74.83;100033.94;6247419;28;20041;-77
2021/07/24 06:27:20;;;;;;;9.23;4.90;;;;;;;22.10;74.46;100024.94;6214993;28;20581;-77
2021/07/24 06:30:20;;;;;;;8.50;4.87;;;;;;;22.20;78.52;100035.38;6249091;28;20052;-77
2021/07/24 06:33:21;;;;;;;8.13;5.00;;;;;;;22.32;75.08;100035.84;6247791;28;20072;-77
2021/07/24 06:36:24;;;;;;;6.95;4.70;;;;;;;22.40;71.25;100022.53;6249080;28;20053;-77
2021/07/24 06:39:24;;;;;;;7.30;4.97;;;;;;;22.45;70.58;100027.38;6249018;28;20050;-77
2021/07/24 06:42:25;;;;;;;13.77;5.07;;;;;;;22.57;68.03;100030.47;6231172;28;20052;-77
2021/07/24 06:45:26;;;;;;;15.13;4.70;;;;;;;22.69;68.34;100027.28;6248804;28;20045;-77
2021/07/24 06:48:30;;;;;;;12.10;4.87;;;;;;;22.74;68.81;100026.75;6247418;28;20046;-77
2021/07/24 06:51:30;;;;;;;13.82;4.22;;;;;;;22.86;70.79;100033.34;6231126;28;20443;-77
2021/07/24 06:54:31;;;;;;;8.00;4.53;;;;;;;22.89;69.67;100035.63;6248572;28;20547;-77
2021/07/24 06:57:32;;;;;;;7.67;4.83;;;;;;;22.93;69.54;100033.47;6248641;28;20065;-77
2021/07/24 07:00:33;;;;;;;10.80;4.57;;;;;;;22.97;70.89;100036.63;6247118;28;20076;-77
2021/07/24 07:03:34;;;;;;;5.67;4.43;;;;;;;23.04;69.91;100032.28;6230879;28;20048;-77
2021/07/24 07:06:35;;;;;;;10.07;4.47;;;;;;;23.15;68.08;100031.88;6248229;28;20102;-77
2021/07/24 07:09:36;;;;;;;8.07;4.80;;;;;;;23.23;67.58;100034.50;6247084;28;20044;-77
2021/07/24 07:12:36;;;;;;;9.00;4.60;;;;;;;23.29;67.43;100036.47;6230588;28;20050;-77
2021/07/24 07:15:37;;;;;;;7.37;4.33;;;;;;;23.41;66.61;100039.53;6230636;28;20381;-77
2021/07/24 07:18:38;;;;;;;8.53;4.50;;;;;;;23.52;65.26;100043.63;6248210;28;20320;-77
2021/07/24 07:21:38;;;;;;;9.50;4.70;;;;;;;23.63;64.04;100045.03;6246735;28;20111;-77
2021/07/24 07:24:39;;;;;;;17.80;4.40;;;;;;;23.64;60.13;100049.31;6247928;28;20377;-78
2021/07/24 07:27:41;;;;;;;6.33;4.10;;;;;;;23.79;59.88;100055.56;6247699;28;20554;-77
2021/07/24 07:30:42;;;;;;;9.30;4.10;;;;;;;23.81;62.59;100055.41;6247786;28;20124;-78
2021/07/24 07:33:43;;;;;;;14.53;5.00;;;;;;;23.92;61.41;100047.78;6230032;28;20048;-77
2021/07/24 07:36:43;;;;;;;8.47;4.60;;;;;;;24.03;64.13;100057.19;6246740;28;20370;-78
2021/07/24 07:39:44;;;;;;;7.73;4.10;;;;;;;24.01;61.99;100059.22;6247658;28;20052;-78
2021/07/24 07:42:45;;;;;;;14.83;4.00;;;;;;;24.20;58.94;100062.38;6246215;28;20045;-78
2021/07/24 07:45:45;;;;;;;9.10;4.20;;;;;;;24.33;57.82;100057.22;6247276;28;20049;-77
2021/07/24 07:48:50;;;;;;;8.97;4.13;;;;;;;24.34;59.17;100053.56;6246248;28;20044;-77
2021/07/24 07:51:50;;;;;;;6.65;3.90;;;;;;;24.39;55.04;100056.50;6229921;28;20050;-78
2021/07/24 07:54:51;;;;;;;9.87;4.20;;;;;;;24.46;54.75;100057.44;6229633;28;20408;-77
2021/07/24 07:57:52;;;;;;;7.00;3.87;;;;;;;24.50;53.00;100056.09;6246006;28;20084;-78
2021/07/24 08:00:54;;;;;;;10.47;4.07;;;;;;;24.62;57.23;100061.75;6246882;28;20141;-78
2021/07/24 08:03:55;;;;;;;7.13;3.92;;;;;;;24.90;57.42;100064.59;6245792;28;20049;-77
2021/07/24 08:06:55;;;;;;;12.00;3.93;;;;;;;24.89;50.67;100060.28;6245715;28;20408;-78
2021/07/24 08:09:57;;;;;;;10.03;3.50;;;;;;;24.91;54.52;100063.59;6246899;28;20045;-77
2021/07/24 08:12:57;;;;;;;8.70;3.80;;;;;;;25.06;54.36;100065.38;6246802;28;20038;-77
2021/07/24 08:15:58;;;;;;;11.17;4.23;;;;;;;25.08;53.59;100066.00;6246674;28;20037;-78
2021/07/24 08:18:59;;;;;;;6.50;4.03;;;;;;;25.02;50.78;100058.75;6246805;28;20049;-77
2021/07/24 08:21:59;;;;;;;6.27;3.70;;;;;;;25.01;48.32;100063.25;6246818;28;20137;-77
2021/07/24 08:25:00;;;;;;;8.63;3.97;;;;;;;25.03;47.96;100063.09;6246741;28;20041;-78
2021/07/24 08:28:05;;;;;;;5.72;3.60;;;;;;;25.05;51.40;100055.72;6245217;28;20038;-77
2021/07/24 08:31:05;;;;;;;6.22;3.55;;;;;;;25.21;53.30;100062.72;6246519;28;20107;-78
2021/07/24 08:34:06;;;;;;;8.70;4.13;;;;;;;25.27;47.02;100060.09;6245213;28;20520;-77
2021/07/24 08:37:07;;;;;;;5.45;3.38;;;;;;;25.31;51.52;100066.72;6245093;28;20488;-77
2021/07/24 08:40:08;;;;;;;8.15;3.53;;;;;;;25.46;47.35;100063.16;6228727;28;20404;-77
2021/07/24 08:43:09;;;;;;;5.03;3.22;;;;;;;25.57;46.63;100064.50;6228672;28;20076;-77
2021/07/24 08:46:11;;;;;;;8.47;3.60;;;;;;;25.51;47.75;100061.59;6212332;28;20037;-77
2021/07/24 08:49:12;;;;;;;6.15;3.35;;;;;;;25.68;47.22;100056.81;6244716;28;20034;-78
2021/07/24 08:52:18;;;;;;;6.30;3.40;;;;;;;25.77;45.21;100062.00;6228350;28;20123;-78
2021/07/24 08:55:21;;;;;;;4.18;3.00;;;;;;;25.73;40.95;100056.22;6246100;28;20037;-78
2021/07/24 08:58:22;;;;;;;5.90;3.25;;;;;;;25.86;44.43;100051.00;6246033;28;20071;-78
2021/07/24 09:01:23;;;;;;;6.18;3.35;;;;;;;25.81;45.68;100055.28;6246003;28;20042;-78
2021/07/24 09:04:25;;;;;;;5.25;3.55;;;;;;;25.92;45.19;100039.56;6246088;28;20069;-78
2021/07/24 09:07:30;;;;;;;7.32;4.13;;;;;;;26.11;42.57;100046.06;6245873;28;20072;-78
2021/07/24 09:10:31;;;;;;;6.32;3.63;;;;;;;26.17;44.72;100041.78;6244712;28;20124;-78
2021/07/24 09:13:32;;;;;;;5.80;3.33;;;;;;;26.16;45.00;100037.47;6244883;28;20124;-77
2021/07/24 09:16:33;;;;;;;6.40;3.60;;;;;;;26.20;48.82;100030.69;6244580;28;20050;-78
2021/07/24 09:19:36;;;;;;;8.00;3.83;;;;;;;26.19;47.91;100033.56;6245851;28;20390;-78
2021/07/24 09:22:42;;;;;;;8.73;3.28;;;;;;;26.36;45.12;100034.91;6245663;28;20046;-78
2021/07/24 09:25:42;;;;;;;7.28;3.85;;;;;;;26.31;42.50;100021.28;6244575;28;20049;-77
2021/07/24 09:29:03;;;;;;;6.27;3.37;;;;;;;26.40;46.08;100022.78;6245657;28;20396;-78
2021/07/24 09:32:08;;;;;;;7.23;3.77;;;;;;;26.52;47.31;100023.88;6228237;28;20084;-78
2021/07/24 09:35:09;;;;;;;6.05;3.70;;;;;;;26.52;43.50;100026.56;6245692;28;20286;-78
2021/07/24 09:38:13;;;;;;;5.13;3.47;;;;;;;26.64;48.63;100023.34;6211962;28;20052;-78
2021/07/24 09:41:17;;;;;;;5.75;3.90;;;;;;;26.67;42.68;100020.28;6244594;28;20069;-78
2021/07/24 09:44:29;;;;;;;5.72;3.58;;;;;;;26.80;42.35;100017.63;6245506;28;20045;-78
2021/07/24 09:47:30;;;;;;;8.25;4.20;;;;;;;26.84;42.71;100018.06;6228009;28;20481;-77
2021/07/24 09:50:33;;;;;;;5.77;3.60;;;;;;;26.82;41.78;100018.25;6227986;28;20044;-78
2021/07/24 09:53:41;;;;;;;6.82;3.83;;;;;;;26.84;39.64;100018.06;6227818;28;20037;-78
2021/07/24 09:56:44;;;;;;;8.20;4.10;;;;;;;26.90;41.29;100022.63;6245505;28;20419;-78
2021/07/24 09:59:45;;;;;;;6.40;3.88;;;;;;;26.82;43.77;100020.94;6244946;28;20053;-78
2021/07/24 10:02:46;;;;;;;5.78;4.05;;;;;;;26.94;39.33;100013.97;6248753;28;20477;-77
2021/07/24 10:05:47;;;;;;;4.85;3.53;;;;;;;27.05;39.04;100015.22;6249699;28;20065;-77
2021/07/24 10:08:49;;;;;;;8.45;3.85;;;;;;;27.11;37.39;100021.63;6232222;28;20047;-77
2021/07/24 10:11:53;;;;;;;7.00;4.10;;;;;;;27.13;42.87;100014.22;6249608;28;20053;-77
2021/07/24 10:14:56;;;;;;;9.07;3.97;;;;;;;27.26;41.53;100019.66;6232232;28;20107;-78
2021/07/24 10:17:58;;;;;;;5.22;3.47;;;;;;;27.38;39.44;100025.22;6248470;28;20128;-78
2021/07/24 10:21:04;;;;;;;8.27;3.67;;;;;;;27.33;42.25;100014.31;6249480;28;20041;-77
2021/07/24 10:24:05;;;;;;;10.75;3.90;;;;;;;27.42;38.46;100006.88;6248337;28;20052;-78
2021/07/24 10:27:24;;;;;;;5.28;3.65;;;;;;;27.50;41.95;100009.38;6232008;28;20050;-78
2021/07/24 10:30:29;;;;;;;8.05;3.97;;;;;;;27.63;43.22;100012.03;6249343;28;20030;-77
2021/07/24 10:33:31;;;;;;;10.02;3.55;;;;;;;27.65;38.86;100009.16;6248222;28;20041;-78
2021/07/24 10:36:37;;;;;;;5.60;3.85;;;;;;;27.81;38.69;100006.06;6249130;28;20042;-78
2021/07/24 10:39:38;;;;;;;5.90;3.53;;;;;;;27.88;38.65;100003.41;6247890;28;20128;-78
2021/07/24 10:42:39;;;;;;;7.65;3.83;;;;;;;27.88;40.04;100008.75;6231583;28;20124;-77
2021/07/24 10:45:45;;;;;;;4.40;3.83;;;;;;;27.99;39.38;100004.63;6249049;28;20496;-78
2021/07/24 10:48:46;;;;;;;7.50;3.95;;;;;;;27.86;39.14;99994.69;6247888;28;20396;-78
2021/07/24 10:51:57;;;;;;;5.97;3.50;;;;;;;27.99;38.33;100004.63;6247601;28;20053;-78
2021/07/24 10:55:02;;;;;;;8.55;3.70;;;;;;;28.13;36.31;99990.97;6248806;28;20052;-77
2021/07/24 10:58:05;;;;;;;6.60;3.85;;;;;;;28.22;38.54;99988.91;6230798;28;20068;-78
2021/07/24 11:01:08;;;;;;;6.40;3.95;;;;;;;28.18;38.31;99993.03;6247652;28;20041;-78
2021/07/24 11:04:37;;;;;;;6.78;3.85;;;;;;;28.43;41.96;99995.03;6247683;28;20412;-78
2021/07/24 11:07:40;;;;;;;7.97;3.83;;;;;;;28.60;41.73;99992.72;6248276;28;20052;-78
2021/07/24 11:11:09;;;;;;;9.32;3.55;;;;;;;28.66;37.91;99984.66;6247069;28;20397;-78
2021/07/24 11:14:38;;;;;;;6.60;3.83;;;;;;;28.87;36.63;99993.44;6248265;28;20488;-78
2021/07/24 11:17:39;;;;;;;4.50;3.50;;;;;;;28.84;37.84;99991.16;6247073;28;20042;-78
2021/07/24 11:20:46;;;;;;;6.78;3.80;;;;;;;28.17;38.01;99988.72;6248214;28;20076;-78
2021/07/24 11:24:13;;;;;;;6.43;3.67;;;;;;;28.43;37.83;99981.59;6248244;28;20480;-78
2021/07/24 11:27:15;;;;;;;5.43;3.53;;;;;;;28.73;37.43;99982.75;6245546;28;20452;-78
2021/07/24 11:30:21;;;;;;;6.75;3.75;;;;;;;28.88;40.07;99985.13;6246625;28;20041;-78
2021/07/24 11:33:28;;;;;;;4.32;3.60;;;;;;;29.07;35.71;99987.91;6246876;28;20069;-78
2021/07/24 11:36:28;;;;;;;8.18;3.55;;;;;;;29.14;35.84;99991.44;6247647;28;20069;-78
2021/07/24 11:39:31;;;;;;;4.72;3.55;;;;;;;29.15;35.27;99984.19;6246505;28;20041;-78
2021/07/24 11:42:31;;;;;;;5.53;3.75;;;;;;;29.23;34.89;99984.72;6246498;28;20064;-78
2021/07/24 11:45:35;;;;;;;5.43;3.97;;;;;;;29.47;35.52;99984.97;6248137;28;20042;-78
2021/07/24 11:48:38;;;;;;;10.52;3.60;;;;;;;29.66;37.40;99980.47;6245912;28;20057;-78
2021/07/24 11:51:41;;;;;;;5.53;3.60;;;;;;;29.98;37.12;99983.06;6246249;28;20455;-78
2021/07/24 11:54:50;;;;;;;5.70;3.50;;;;;;;29.99;35.81;99979.38;6213541;28;20045;-78
2021/07/24 11:57:59;;;;;;;4.45;3.63;;;;;;;29.99;35.03;99985.56;6247158;28;20052;-78
2021/07/24 12:01:01;;;;;;;7.07;4.13;;;;;;;30.14;34.33;99982.50;6246863;28;20045;-78
2021/07/24 12:04:07;;;;;;;6.03;4.07;;;;;;;30.39;38.33;99979.75;6213579;28;20049;-78
2021/07/24 12:07:08;;;;;;;6.13;3.83;;;;;;;30.23;35.18;99989.22;6246880;28;20476;-78
2021/07/24 12:10:09;;;;;;;13.35;4.03;;;;;;;30.60;32.29;99986.56;6245794;28;20068;-78
2021/07/24 12:13:12;;;;;;;4.70;3.67;;;;;;;30.76;31.52;99977.00;6213003;28;20507;-78
2021/07/24 12:16:14;;;;;;;5.38;3.55;;;;;;;30.97;35.89;99981.09;6245536;28;20040;-78
2021/07/24 12:19:17;;;;;;;4.03;3.45;;;;;;;31.18;33.06;99979.75;6245468;28;20098;-78
2021/07/24 12:22:21;;;;;;;5.72;4.20;;;;;;;30.51;34.10;99977.13;6246145;28;20123;-78
2021/07/24 12:25:24;;;;;;;9.10;4.13;;;;;;;30.33;36.48;99977.94;6245255;28;20045;-78
2021/07/24 12:28:31;;;;;;;4.15;3.42;;;;;;;31.16;32.75;99978.34;6245101;28;20045;-78
2021/07/24 12:31:33;;;;;;;7.90;3.90;;;;;;;31.33;33.74;99971.22;6228888;28;20042;-78
2021/07/24 12:34:36;;;;;;;5.22;3.90;;;;;;;30.60;34.72;99974.94;6246376;28;20038;-78
2021/07/24 12:37:37;;;;;;;5.70;3.65;;;;;;;30.41;36.46;99972.25;6245115;28;20071;-78
2021/07/24 12:40:37;;;;;;;7.05;3.88;;;;;;;31.25;32.55;99977.75;6228906;28;20124;-78
2021/07/24 12:43:43;;;;;;;9.50;3.97;;;;;;;30.71;34.90;99964.22;6245018;28;20069;-78
2021/07/24 12:47:13;;;;;;;7.32;4.35;;;;;;;34.05;29.01;99971.03;6246083;28;20037;-78
2021/07/24 12:50:16;;;;;;;9.38;3.75;;;;;;;35.23;27.13;99972.38;6246169;28;20515;-78
2021/07/24 12:53:19;;;;;;;10.15;3.78;;;;;;;33.53;28.00;99958.66;6246230;28;20480;-78
2021/07/24 12:56:20;;;;;;;6.85;4.13;;;;;;;32.78;30.05;99971.44;6245141;28;20139;-78
2021/07/24 12:59:20;;;;;;;4.82;3.63;;;;;;;34.87;24.80;99963.91;6246047;28;20570;-78
2021/07/24 13:02:22;;;;;;;6.85;3.97;;;;;;;35.50;25.56;99966.88;6245102;28;20154;-78
2021/07/24 13:05:24;;;;;;;4.68;3.80;;;;;;;36.45;24.56;99961.44;6244721;28;20038;-79
2021/07/24 13:08:24;;;;;;;6.57;3.63;;;;;;;36.90;23.67;99951.75;6244544;28;20045;-79
2021/07/24 13:11:25;;;;;;;4.88;3.50;;;;;;;35.57;24.29;99956.63;6245869;28;20060;-79
2021/07/24 13:14:26;;;;;;;7.43;3.70;;;;;;;36.47;24.88;99964.69;6244635;28;20048;-79
2021/07/24 13:17:27;;;;;;;5.18;3.33;;;;;;;36.16;24.21;99950.22;6244396;28;20543;-79
2021/07/24 13:20:28;;;;;;;7.30;3.88;;;;;;;35.64;25.11;99957.19;6244617;28;20469;-79
2021/07/24 13:23:28;;;;;;;5.75;2.90;;;;;;;34.51;25.75;99953.50;6245784;28;20041;-79
2021/07/24 13:29:45;;;;;;;8.48;3.38;;;;;;;33.26;27.61;99950.41;6244539;28;20452;-78
2021/07/24 13:32:47;;;;;;;10.90;3.80;;;;;;;33.07;28.35;99957.88;6244345;28;20048;-79
2021/07/24 13:35:48;;;;;;;4.18;3.47;;;;;;;32.73;31.99;99949.72;6247201;28;20080;-78
2021/07/24 13:38:49;;;;;;;4.18;3.38;;;;;;;31.73;30.81;99955.22;6216412;28;20574;-78
2021/07/24 13:41:50;;;;;;;4.07;3.60;;;;;;;32.13;33.21;99942.88;6249196;28;20042;-78
2021/07/24 13:44:50;;;;;;;6.55;3.17;;;;;;;31.52;33.79;99951.22;6250196;28;20052;-78
2021/07/24 13:47:51;;;;;;;4.38;3.78;;;;;;;30.97;30.63;99946.09;6249194;28;20034;-78
2021/07/24 13:50:54;;;;;;;6.53;4.20;;;;;;;31.07;30.86;99949.03;6249060;28;20749;-78
2021/07/24 13:53:56;;;;;;;4.78;3.58;;;;;;;30.91;31.11;99947.81;6216299;28;20463;-78
2021/07/24 13:56:56;;;;;;;6.03;3.92;;;;;;;30.33;32.66;99948.34;6248978;28;20045;-78
2021/07/24 13:59:57;;;;;;;;;;;;;;;29.90;33.08;99950.06;6249013;28;20053;-78
2021/07/24 14:02:57;;;;;;;5.13;3.70;;;;;;;29.73;33.39;99954.38;6249014;28;19921;-77
2021/07/24 14:06:00;;;;;;;4.18;3.40;;;;;;;29.70;33.85;99949.41;6248504;28;20042;-78
2021/07/24 14:09:00;;;;;;;8.30;3.63;;;;;;;29.79;37.34;99952.66;6249764;28;20037;-78
2021/07/24 14:12:01;;;;;;;4.35;3.47;;;;;;;29.76;36.57;99951.25;6248440;28;20048;-78
2021/07/24 14:15:02;;;;;;;5.68;3.55;;;;;;;30.15;35.53;99943.78;6248269;28;20053;-78
2021/07/24 14:18:04;;;;;;;4.95;3.35;;;;;;;30.11;36.77;99946.09;6249671;28;20052;-78
2021/07/24 14:21:04;;;;;;;5.20;3.63;;;;;;;30.22;36.64;99943.72;6248277;28;20037;-78